Time;durP1;ratioP1;P1;durP2;ratioP2;P2;SDS_P1;SDS_P2;PMS_P1;PMS_P2;Temp;Humidity;BMP_temperature;BMP_pressure;BME280_temperature;BME280_humidity;BME280_pressure;Samples;Min_cycle;Max_cycle;Signal;HPM_P1;HPM_P2
2022/01/19 00:00:07;;;;;;;26.60;9.50;;;;;;;-145.69;100.00;74272.81;5136501;27;20228;-78
2022/01/19 00:02:34;;;;;;;34.37;11.00;;;;;;;-145.69;100.00;74280.78;5135904;27;20719;-79
2022/01/19 00:05:00;;;;;;;27.57;11.33;;;;;;;-145.69;100.00;74256.88;5136305;27;20563;-79
2022/01/19 00:07:27;;;;;;;37.83;11.13;;;;;;;-145.69;100.00;74234.97;5136543;27;20306;-78
2022/01/19 00:09:55;;;;;;;28.57;10.93;;;;;;;-145.69;100.00;74209.09;5136259;27;20235;-78
2022/01/19 00:12:24;;;;;;;26.27;10.83;;;;;;;-145.69;100.00;74185.19;5136417;27;20199;-78
2022/01/19 00:14:51;;;;;;;29.20;11.00;;;;;;;-145.69;100.00;74185.19;5136276;27;20706;-79
2022/01/19 00:17:20;;;;;;;39.33;11.57;;;;;;;-145.69;100.00;74193.16;5135526;27;20686;-79
2022/01/19 00:19:49;;;;;;;25.50;9.97;;;;;;;-145.69;100.00;74197.13;5117885;27;20204;-79
2022/01/19 00:22:20;;;;;;;39.70;11.43;;;;;;;-145.69;100.00;74161.28;5115851;28;20193;-78
2022/01/19 00:24:47;;;;;;;35.90;10.83;;;;;;;-145.69;100.00;74157.31;5115647;28;20208;-79
2022/01/19 00:27:16;;;;;;;23.37;9.80;;;;;;;-145.69;100.00;74161.28;5115515;28;20295;-79
2022/01/19 00:29:44;;;;;;;26.63;9.50;;;;;;;-145.69;100.00;74193.16;5115350;28;20746;-79
2022/01/19 00:32:10;;;;;;;30.60;10.50;;;;;;;-145.69;100.00;74201.13;5124137;27;20663;-78
2022/01/19 00:34:37;;;;;;;19.90;8.83;;;;;;;-145.69;100.00;74225.03;5136043;27;20209;-78
2022/01/19 00:37:05;;;;;;;24.73;9.70;;;;;;;-145.69;100.00;74229.00;5135799;27;20244;-78
2022/01/19 00:39:33;;;;;;;23.03;9.03;;;;;;;-145.69;100.00;74225.03;5135955;27;20199;-78
2022/01/19 00:41:59;;;;;;;33.77;8.93;;;;;;;-145.69;100.00;74240.94;5135816;27;20232;-78
2022/01/19 00:44:26;;;;;;;20.60;7.83;;;;;;;-145.69;100.00;74244.94;5135655;27;20254;-78
2022/01/19 00:46:54;;;;;;;23.43;8.60;;;;;;;-145.69;100.00;74236.97;5135488;27;20205;-78
2022/01/19 00:49:20;;;;;;;19.47;8.67;;;;;;;-145.69;100.00;74236.97;5135773;27;20207;-78
2022/01/19 00:51:47;;;;;;;26.63;9.10;;;;;;;-145.69;100.00;74201.13;5135558;27;20200;-78
2022/01/19 00:54:13;;;;;;;32.23;10.43;;;;;;;-145.69;100.00;74191.16;5135582;27;20290;-78
2022/01/19 00:56:43;;;;;;;19.20;7.83;;;;;;;-145.69;100.00;74205.09;5135592;27;20548;-78
2022/01/19 00:59:09;;;;;;;27.77;8.90;;;;;;;-145.69;100.00;74221.03;5135313;27;20204;-78
2022/01/19 01:01:36;;;;;;;25.47;7.97;;;;;;;-145.69;100.00;74231.00;5135249;27;20224;-79
2022/01/19 01:04:04;;;;;;;18.27;7.67;;;;;;;-145.69;100.00;74215.06;5135543;27;20200;-78
2022/01/19 01:06:31;;;;;;;26.10;8.90;;;;;;;-145.69;100.00;74213.06;5135275;27;20215;-78
2022/01/19 01:08:57;;;;;;;23.43;9.13;;;;;;;-145.69;100.00;74193.16;5135386;27;20201;-79
2022/01/19 01:11:32;;;;;;;32.97;9.67;;;;;;;-145.69;100.00;74173.25;5134988;27;20197;-79
2022/01/19 01:19:39;;;;;;;34.88;13.10;;;;;;;-145.69;100.00;74125.44;5046407;28;20432;-79
2022/01/19 01:22:06;;;;;;;40.27;12.03;;;;;;;-145.69;100.00;74109.53;5046346;28;20210;-79
2022/01/19 01:24:32;;;;;;;31.70;12.27;;;;;;;-145.69;100.00;74075.69;5046718;28;20252;-78
2022/01/19 01:26:59;;;;;;;32.77;13.03;;;;;;;-145.69;100.00;74077.66;5046719;28;20239;-79
2022/01/19 01:29:28;;;;;;;38.63;12.67;;;;;;;-145.69;100.00;74065.72;5046516;28;20211;-79
2022/01/19 01:31:54;;;;;;;21.73;10.50;;;;;;;-145.69;100.00;74061.72;5045648;28;20203;-79
2022/01/19 01:34:20;;;;;;;22.43;10.40;;;;;;;-145.69;100.00;74071.69;5046429;28;20203;-79
2022/01/19 01:36:48;;;;;;;28.90;10.87;;;;;;;-145.69;100.00;74061.72;5046488;28;20196;-78
2022/01/19 01:39:15;;;;;;;25.77;11.47;;;;;;;-145.69;100.00;74073.69;5046257;28;20227;-78
2022/01/19 01:41:41;;;;;;;26.10;10.07;;;;;;;-145.69;100.00;74081.66;5046446;28;20212;-79
2022/01/19 01:44:08;;;;;;;25.37;11.00;;;;;;;-145.69;100.00;74075.69;5046402;28;20203;-79
2022/01/19 01:46:43;;;;;;;25.50;10.87;;;;;;;-145.69;100.00;74061.72;5046209;28;20204;-79
2022/01/19 01:49:16;;;;;;;28.50;9.97;;;;;;;-145.69;100.00;74067.72;5046107;28;20212;-78
2022/01/19 01:54:29;;;;;;;28.07;10.37;;;;;;;-145.69;100.00;74033.84;5046234;28;20210;-78
2022/01/19 01:56:56;;;;;;;22.03;10.17;;;;;;;-145.69;100.00;74029.88;5046036;28;20207;-78
2022/01/19 01:59:22;;;;;;;21.63;9.03;;;;;;;-145.69;100.00;74015.94;5045841;28;20697;-78
2022/01/19 02:01:49;;;;;;;22.17;9.13;;;;;;;-145.69;100.00;74009.97;5032647;28;20285;-78
2022/01/19 02:04:16;;;;;;;24.97;10.43;;;;;;;-145.69;100.00;74004.00;5026165;28;20565;-78
2022/01/19 02:07:01;;;;;;;25.17;10.63;;;;;;;-145.69;100.00;73992.03;5026199;28;20208;-78
2022/01/19 02:09:36;;;;;;;18.57;8.70;;;;;;;-145.69;100.00;73986.06;5026054;28;20666;-78
2022/01/19 02:23:09;;;;;;;24.87;9.73;;;;;;;-145.69;100.00;73938.28;5045681;28;20245;-78
2022/01/19 02:25:41;;;;;;;24.93;9.67;;;;;;;-145.69;100.00;73940.28;5045749;28;20208;-79
2022/01/19 02:31:44;;;;;;;17.40;8.50;;;;;;;-145.69;100.00;73936.28;5033015;28;20203;-78
2022/01/19 02:40:09;;;;;;;17.93;9.27;;;;;;;-145.69;100.00;73944.25;5032222;28;20206;-78
2022/01/19 02:42:41;;;;;;;25.57;10.50;;;;;;;-145.69;100.00;73974.13;4990695;28;20205;-78
2022/01/19 02:50:41;;;;;;;23.67;11.50;;;;;;;-145.69;100.00;73986.06;5032068;28;20554;-79
2022/01/19 02:53:09;;;;;;;26.37;11.43;;;;;;;-145.69;100.00;73980.09;5031978;28;20196;-79
2022/01/19 02:55:36;;;;;;;27.47;11.30;;;;;;;-145.69;100.00;73984.09;5031967;28;20222;-79
2022/01/19 02:58:03;;;;;;;27.13;11.83;;;;;;;-145.69;100.00;73972.13;5012751;28;20221;-79
2022/01/19 03:08:43;;;;;;;24.50;11.60;;;;;;;-145.69;100.00;73950.22;5011417;28;20212;-79
2022/01/19 03:09:21;;;;;;;28.40;11.50;;;;;;;-145.69;100.00;73936.28;5011828;28;20233;-78
2022/01/19 03:11:48;;;;;;;31.97;10.80;;;;;;;-145.69;100.00;73942.25;5012044;28;20288;-79
2022/01/19 03:14:18;;;;;;;28.63;12.00;;;;;;;-145.69;100.00;73932.31;5011929;28;20200;-79
2022/01/19 03:16:45;;;;;;;20.27;10.87;;;;;;;-145.69;100.00;73926.34;5011798;28;20205;-78
2022/01/19 03:19:12;;;;;;;23.33;10.27;;;;;;;-145.69;100.00;73934.31;5011610;28;20248;-79
2022/01/19 03:21:39;;;;;;;24.93;11.07;;;;;;;-145.69;100.00;73926.34;5011888;28;20197;-78
2022/01/19 03:26:49;;;;;;;20.23;10.10;;;;;;;-145.69;100.00;73922.34;5017368;28;20212;-79
2022/01/19 03:29:18;;;;;;;22.33;10.40;;;;;;;-145.69;100.00;73924.34;5031307;28;20204;-79
2022/01/19 03:31:48;;;;;;;21.53;11.17;;;;;;;-145.69;100.00;73926.34;5031626;28;20208;-79
2022/01/19 03:34:16;;;;;;;26.20;11.63;;;;;;;-145.69;100.00;73918.38;5031246;28;20200;-78
2022/01/19 03:36:43;;;;;;;26.67;11.30;;;;;;;-145.69;100.00;73918.38;5031513;28;20200;-78
2022/01/19 03:39:09;;;;;;;30.40;11.13;;;;;;;-145.69;100.00;73910.41;5030484;28;20235;-78
2022/01/19 03:41:35;;;;;;;20.97;10.07;;;;;;;-145.69;100.00;73910.41;5030059;28;20585;-78
2022/01/19 03:44:04;;;;;;;26.70;10.50;;;;;;;-145.69;100.00;73926.34;5031312;28;20208;-79
2022/01/19 03:46:34;;;;;;;22.60;10.10;;;;;;;-145.69;100.00;73946.25;5031032;28;20303;-79
2022/01/19 03:49:09;;;;;;;20.00;9.77;;;;;;;-145.69;100.00;73968.16;5031245;28;20219;-79
2022/01/19 03:51:37;;;;;;;21.70;10.23;;;;;;;-145.69;100.00;73984.09;5031059;28;20234;-79
2022/01/19 03:54:04;;;;;;;20.03;9.70;;;;;;;-145.69;100.00;73972.13;5031205;28;20208;-80
2022/01/19 03:56:30;;;;;;;20.03;10.43;;;;;;;-145.69;100.00;73978.09;5023493;28;20203;-80
2022/01/19 03:58:57;;;;;;;25.97;12.37;;;;;;;-145.69;100.00;73976.13;5010987;28;20567;-78
2022/01/19 04:01:26;;;;;;;33.17;11.87;;;;;;;-145.69;100.00;73982.09;5011274;28;20203;-79
2022/01/19 04:06:56;;;;;;;25.60;11.57;;;;;;;-145.69;100.00;73990.06;4975448;28;20220;-80
2022/01/19 04:09:23;;;;;;;23.43;11.07;;;;;;;-145.69;100.00;74005.97;5011327;28;20298;-79
2022/01/19 04:11:50;;;;;;;27.20;12.10;;;;;;;-145.69;100.00;74013.94;5011103;28;20205;-79
2022/01/19 04:14:24;;;;;;;20.80;10.53;;;;;;;-145.69;100.00;74029.88;5011061;28;20209;-79
2022/01/19 04:16:54;;;;;;;23.67;11.00;;;;;;;-145.69;100.00;74025.91;5010962;28;20567;-79
2022/01/19 04:19:30;;;;;;;27.87;12.03;;;;;;;-145.69;100.00;74025.91;5010527;28;20259;-78
2022/01/19 04:21:59;;;;;;;28.20;12.00;;;;;;;-145.69;100.00;74027.88;5011898;28;20200;-79
2022/01/19 04:24:26;;;;;;;27.67;11.53;;;;;;;-145.69;100.00;74015.94;5028839;28;20200;-79
2022/01/19 04:29:34;;;;;;;26.67;11.40;;;;;;;-145.69;100.00;74013.94;5019651;28;20223;-80
2022/01/19 04:32:09;;;;;;;29.77;13.13;;;;;;;-145.69;100.00;74013.94;5010580;28;20690;-79
2022/01/19 04:34:37;;;;;;;25.37;12.10;;;;;;;-145.69;100.00;73998.03;5010804;28;20300;-79
2022/01/19 04:37:26;;;;;;;28.00;12.07;;;;;;;-145.69;100.00;74005.97;5010752;28;20207;-79
2022/01/19 04:48:57;;;;;;;23.63;10.60;;;;;;;-145.69;100.00;74109.53;4986034;28;20201;-79
2022/01/19 04:54:41;;;;;;;24.80;11.20;;;;;;;-145.69;100.00;74145.38;5010173;28;20571;-79
2022/01/19 05:02:57;;;;;;;31.07;11.73;;;;;;;-145.69;100.00;74147.34;4987917;28;20192;-80
2022/01/19 05:05:29;;;;;;;26.03;11.53;;;;;;;-145.69;100.00;74149.34;5010493;28;20201;-79
2022/01/19 05:08:01;;;;;;;30.60;12.47;;;;;;;-145.69;100.00;74123.47;5010307;28;20209;-80
2022/01/19 05:13:26;;;;;;;41.13;14.27;;;;;;;-145.69;100.00;74065.72;5010143;28;20555;-79
2022/01/19 05:15:53;;;;;;;36.37;14.47;;;;;;;-145.69;100.00;74057.75;5010068;28;20295;-79
2022/01/19 05:18:20;;;;;;;38.27;13.67;;;;;;;-145.69;100.00;74065.72;5009888;28;20228;-80
2022/01/19 05:20:48;;;;;;;38.33;14.93;;;;;;;-145.69;100.00;74057.75;5009713;28;20212;-80
2022/01/19 05:23:16;;;;;;;40.60;16.03;;;;;;;-145.69;100.00;74061.72;5010170;28;20208;-79
2022/01/19 05:25:43;;;;;;;36.83;14.47;;;;;;;-145.69;100.00;74079.66;5012394;28;20217;-79
2022/01/19 05:28:10;;;;;;;35.97;14.60;;;;;;;-145.69;100.00;74081.66;5029828;28;20200;-80
2022/01/19 05:30:36;;;;;;;30.60;14.13;;;;;;;-145.69;100.00;74079.66;5029622;28;20207;-79
2022/01/19 05:33:03;;;;;;;42.37;15.87;;;;;;;-145.69;100.00;74073.69;5029636;28;20196;-79
2022/01/19 05:35:30;;;;;;;41.23;14.57;;;;;;;-145.69;100.00;74075.69;5029646;28;20672;-80
2022/01/19 05:37:58;;;;;;;41.87;14.60;;;;;;;-145.69;100.00;74065.72;5029437;28;20666;-79
2022/01/19 05:40:24;;;;;;;41.53;16.33;;;;;;;-145.69;100.00;74019.91;5029329;28;20228;-80
2022/01/19 05:42:51;;;;;;;52.10;17.60;;;;;;;-145.69;100.00;73988.06;5029698;28;20204;-80
2022/01/19 05:45:18;;;;;;;43.27;16.70;;;;;;;-145.69;100.00;73994.03;5029712;28;20211;-80
2022/01/19 05:47:45;;;;;;;43.00;16.13;;;;;;;-145.69;100.00;74007.97;5029551;28;20204;-80
2022/01/19 05:50:12;;;;;;;43.40;16.17;;;;;;;-145.69;100.00;74011.97;5029421;28;20586;-80
2022/01/19 05:52:39;;;;;;;39.90;15.07;;;;;;;-145.69;100.00;74021.91;5029236;28;20211;-80
2022/01/19 05:55:08;;;;;;;37.70;14.90;;;;;;;-145.69;100.00;74045.81;5028997;28;20670;-80
2022/01/19 05:57:34;;;;;;;42.67;15.13;;;;;;;-145.69;100.00;74069.69;5009815;28;20205;-80
2022/01/19 06:00:01;;;;;;;36.27;13.93;;;;;;;-145.69;100.00;74069.69;5009635;28;20248;-79
2022/01/19 06:02:27;;;;;;;32.57;14.10;;;;;;;-145.69;100.00;74089.63;5009634;28;20205;-79
2022/01/19 06:04:54;;;;;;;42.17;13.67;;;;;;;-145.69;100.00;74091.59;5010565;28;20200;-80
2022/01/19 06:07:26;;;;;;;35.50;13.97;;;;;;;-145.69;100.00;74089.63;5012767;28;20201;-80
2022/01/19 06:10:02;;;;;;;32.83;13.03;;;;;;;-145.69;100.00;74093.59;5013195;28;20254;-79
2022/01/19 06:12:30;;;;;;;34.50;13.07;;;;;;;-145.69;100.00;74093.59;5013097;28;20200;-80
2022/01/19 06:14:56;;;;;;;34.83;13.60;;;;;;;-145.69;100.00;74089.63;5012694;28;20205;-80
2022/01/19 06:17:23;;;;;;;37.17;14.50;;;;;;;-145.69;100.00;74093.59;5012723;28;20204;-80
2022/01/19 06:19:49;;;;;;;29.17;13.87;;;;;;;-145.69;100.00;74097.56;5012761;28;20232;-80
2022/01/19 06:22:17;;;;;;;36.00;13.97;;;;;;;-145.69;100.00;74079.66;5012994;28;20549;-80
2022/01/19 06:24:44;;;;;;;40.90;14.57;;;;;;;-145.69;100.00;74037.84;5013080;28;20201;-80
2022/01/19 06:27:10;;;;;;;37.03;14.97;;;;;;;-145.69;100.00;74023.91;5029201;28;20196;-80
2022/01/19 06:29:38;;;;;;;42.77;14.83;;;;;;;-145.69;100.00;74029.88;5032503;28;20212;-80
2022/01/19 06:32:05;;;;;;;37.17;15.17;;;;;;;-145.69;100.00;74033.84;5029959;28;20208;-80
2022/01/19 06:34:32;;;;;;;38.77;13.67;;;;;;;-145.69;100.00;74057.75;5031517;28;20203;-79
2022/01/19 06:36:58;;;;;;;38.23;14.43;;;;;;;-145.69;100.00;74047.78;5032433;28;20204;-79
2022/01/19 06:39:25;;;;;;;34.13;14.13;;;;;;;-145.69;100.00;74069.69;5032266;28;20460;-79
2022/01/19 06:41:51;;;;;;;31.20;12.73;;;;;;;-145.69;100.00;74091.59;5032209;28;20446;-79
2022/01/19 06:44:18;;;;;;;33.00;13.53;;;;;;;-145.69;100.00;74095.59;5032100;28;20679;-79
2022/01/19 06:46:46;;;;;;;31.33;12.83;;;;;;;-145.69;100.00;74115.50;5032302;28;20196;-79
2022/01/19 06:49:12;;;;;;;29.77;12.17;;;;;;;-145.69;100.00;74111.50;5032236;28;20212;-80
2022/01/19 06:51:39;;;;;;;30.83;12.50;;;;;;;-145.69;100.00;74101.56;5032097;28;20204;-80
2022/01/19 06:54:05;;;;;;;30.03;12.33;;;;;;;-145.69;100.00;74093.59;5032276;28;20200;-79
2022/01/19 06:56:37;;;;;;;30.17;12.30;;;;;;;-145.69;100.00;74097.56;5018184;28;20205;-79
2022/01/19 06:59:03;;;;;;;27.23;11.67;;;;;;;-145.69;100.00;74105.53;5012360;28;20629;-80
2022/01/19 07:01:32;;;;;;;37.00;12.90;;;;;;;-145.69;100.00;74101.56;5012105;28;20204;-80
2022/01/19 07:04:00;;;;;;;30.77;13.50;;;;;;;-145.69;100.00;74095.59;5012440;28;20208;-80
2022/01/19 07:06:26;;;;;;;31.63;11.87;;;;;;;-145.69;100.00;74099.56;5012072;28;20686;-80
2022/01/19 07:08:53;;;;;;;31.10;12.03;;;;;;;-145.69;100.00;74107.53;5012217;28;20204;-79
2022/01/19 07:11:19;;;;;;;33.70;13.03;;;;;;;-145.69;100.00;74093.59;5012113;28;20201;-81
2022/01/19 07:13:46;;;;;;;32.13;13.50;;;;;;;-145.69;100.00;74065.72;5012127;28;20247;-79
2022/01/19 07:16:12;;;;;;;32.90;12.80;;;;;;;-145.69;100.00;74065.72;5011811;28;20209;-79
2022/01/19 07:18:39;;;;;;;38.20;14.07;;;;;;;-145.69;100.00;74059.75;5012061;28;20707;-79
2022/01/19 07:21:07;;;;;;;33.70;13.27;;;;;;;-145.69;100.00;74063.72;5026566;28;20224;-79
2022/01/19 07:23:34;;;;;;;31.67;12.57;;;;;;;-145.69;100.00;74065.72;5012221;28;20205;-79
2022/01/19 07:26:00;;;;;;;30.77;12.47;;;;;;;-145.69;100.00;74083.63;5011774;28;20655;-79
2022/01/19 07:28:27;;;;;;;32.33;13.03;;;;;;;-145.69;100.00;74081.66;5012006;28;20209;-78
2022/01/19 07:30:53;;;;;;;31.57;12.13;;;;;;;-145.69;100.00;74063.72;5011575;28;20213;-79
2022/01/19 07:33:20;;;;;;;32.33;13.10;;;;;;;-145.69;100.00;74057.75;5011863;28;20201;-80
2022/01/19 07:35:51;;;;;;;38.77;14.73;;;;;;;-145.69;100.00;74045.81;5011894;28;20197;-80
2022/01/19 07:38:19;;;;;;;39.60;13.80;;;;;;;-145.69;100.00;74045.81;5011859;28;20231;-80
2022/01/19 07:40:45;;;;;;;34.60;13.57;;;;;;;-145.69;100.00;74051.78;5011685;28;20629;-80
2022/01/19 07:43:12;;;;;;;39.23;13.87;;;;;;;-145.69;100.00;74035.84;5011559;28;20209;-80
2022/01/19 07:45:38;;;;;;;36.10;13.77;;;;;;;-145.69;100.00;74035.84;5011756;28;20204;-79
2022/01/19 07:48:06;;;;;;;29.83;11.80;;;;;;;-145.69;100.00;74033.84;5011645;28;20204;-79
2022/01/19 07:50:32;;;;;;;29.23;12.47;;;;;;;-145.69;100.00;74023.91;5026932;28;20204;-80
2022/01/19 07:52:59;;;;;;;32.23;13.40;;;;;;;-145.69;100.00;74009.97;5031241;28;20197;-80
2022/01/19 07:55:27;;;;;;;34.53;12.63;;;;;;;-145.69;100.00;74007.97;5031141;28;20216;-80
2022/01/19 07:57:54;;;;;;;28.07;10.77;;;;;;;-145.69;100.00;74017.94;5030965;28;20200;-80
2022/01/19 08:00:20;;;;;;;30.10;11.93;;;;;;;-145.69;100.00;74017.94;5031142;28;20232;-80
2022/01/19 08:02:49;;;;;;;25.83;10.87;;;;;;;-145.69;100.00;74007.97;5031247;28;20200;-80
2022/01/19 08:05:16;;;;;;;24.13;10.90;;;;;;;-145.69;100.00;74005.97;5031181;28;20204;-80
2022/01/19 08:07:43;;;;;;;26.33;10.67;;;;;;;-145.69;100.00;74015.94;5030972;28;20212;-80
2022/01/19 08:10:11;;;;;;;20.13;9.60;;;;;;;-145.69;100.00;74009.97;5030868;28;20196;-80
2022/01/19 08:12:40;;;;;;;20.33;9.53;;;;;;;-145.69;100.00;74002.00;5031250;28;20256;-80
2022/01/19 08:15:07;;;;;;;28.53;10.60;;;;;;;-145.69;100.00;73994.03;5031015;28;20197;-80
2022/01/19 08:17:34;;;;;;;22.43;9.70;;;;;;;-145.69;100.00;73988.06;5030704;28;20236;-80
2022/01/19 08:20:00;;;;;;;27.03;10.90;;;;;;;-145.69;100.00;73986.06;5019689;28;20308;-80
2022/01/19 08:22:27;;;;;;;23.10;11.37;;;;;;;-145.69;100.00;73974.13;5011070;28;20209;-80
2022/01/19 08:24:53;;;;;;;23.97;10.60;;;;;;;-145.69;100.00;73966.16;5011077;28;20207;-80
2022/01/19 08:27:20;;;;;;;27.20;11.33;;;;;;;-145.69;100.00;73954.22;5010230;28;20652;-80
2022/01/19 08:29:47;;;;;;;22.93;10.07;;;;;;;-145.69;100.00;73954.22;5010881;28;20200;-79
2022/01/19 08:32:14;;;;;;;23.47;9.37;;;;;;;-145.69;100.00;73954.22;5010855;28;20689;-80
2022/01/19 08:34:40;;;;;;;26.93;10.27;;;;;;;-145.69;100.00;73946.25;5013713;28;20204;-79
2022/01/19 08:37:10;;;;;;;23.23;10.13;;;;;;;-145.69;100.00;73934.31;5030698;28;20200;-81
2022/01/19 08:39:38;;;;;;;21.30;9.00;;;;;;;-145.69;100.00;73940.28;5030352;28;20227;-80
2022/01/19 08:42:05;;;;;;;23.77;10.57;;;;;;;-145.69;100.00;73928.31;5030735;28;20204;-80
2022/01/19 08:44:32;;;;;;;27.13;10.20;;;;;;;-145.69;100.00;73926.34;5030312;28;20706;-81
2022/01/19 08:47:00;;;;;;;20.10;9.07;;;;;;;-145.69;100.00;73914.38;5030463;28;20215;-79
2022/01/19 08:49:26;;;;;;;25.07;9.00;;;;;;;-145.69;100.00;73914.38;5021350;28;20591;-82
2022/01/19 08:51:53;;;;;;;17.43;7.83;;;;;;;-145.69;100.00;73906.44;5010554;28;20655;-81
2022/01/19 08:54:19;;;;;;;16.93;7.87;;;;;;;-145.69;100.00;73900.44;5010796;28;20201;-81
2022/01/19 08:56:46;;;;;;;13.83;6.93;;;;;;;-145.69;100.00;73890.50;5010698;28;20201;-81
2022/01/19 08:59:12;;;;;;;14.03;6.20;;;;;;;-145.69;100.00;73878.56;5010706;28;20208;-82
2022/01/19 09:01:39;;;;;;;14.13;5.73;;;;;;;-145.69;100.00;73862.63;5011711;28;20229;-81
2022/01/19 09:04:06;;;;;;;11.03;4.70;;;;;;;-145.69;100.00;73860.63;5010554;28;20284;-81
2022/01/19 09:06:33;;;;;;;9.00;4.57;;;;;;;-145.69;100.00;73848.69;5010754;28;20208;-79
2022/01/19 09:08:59;;;;;;;11.53;4.73;;;;;;;-145.69;100.00;73826.78;5010590;28;20201;-79
2022/01/19 09:11:26;;;;;;;13.47;4.17;;;;;;;-145.69;100.00;73806.88;5010430;28;20209;-79
2022/01/19 09:13:52;;;;;;;7.80;4.03;;;;;;;-145.69;100.00;73751.13;5010583;28;20205;-79
2022/01/19 09:16:19;;;;;;;7.43;3.53;;;;;;;-145.69;100.00;73755.09;5010504;28;20258;-79
2022/01/19 09:18:45;;;;;;;5.60;3.00;;;;;;;-145.69;100.00;73739.19;5010804;28;20236;-78
2022/01/19 09:21:13;;;;;;;6.97;3.63;;;;;;;-145.69;100.00;73739.19;5029828;28;20600;-79
2022/01/19 09:23:40;;;;;;;5.67;3.30;;;;;;;-145.69;100.00;73729.22;5051961;28;20196;-78
2022/01/19 09:26:06;;;;;;;8.97;4.37;;;;;;;-145.69;100.00;73711.31;5030342;28;20196;-78
2022/01/19 09:28:33;;;;;;;7.67;3.80;;;;;;;-145.69;100.00;73679.44;5029757;28;20211;-78
2022/01/19 09:31:02;;;;;;;7.60;3.40;;;;;;;-145.69;100.00;73647.59;5029720;28;20211;-78
2022/01/19 09:33:30;;;;;;;8.67;3.40;;;;;;;-145.69;100.00;73617.72;5029865;28;20293;-77
2022/01/19 09:36:07;;;;;;;7.87;4.10;;;;;;;-145.69;100.00;73623.69;5029838;28;20235;-79
2022/01/19 09:38:38;;;;;;;7.80;3.20;;;;;;;-145.69;100.00;73601.81;5030018;28;20222;-78
2022/01/19 09:41:07;;;;;;;5.07;2.83;;;;;;;-145.69;100.00;73599.81;5032744;28;20232;-79
2022/01/19 09:43:35;;;;;;;7.63;3.63;;;;;;;-145.69;100.00;73583.88;5032638;28;20193;-78
2022/01/19 09:46:03;;;;;;;11.07;4.97;;;;;;;-145.69;100.00;73556.00;5033414;28;20290;-79
2022/01/19 09:48:30;;;;;;;9.00;3.80;;;;;;;-145.69;100.00;73526.16;5033353;28;20209;-78
2022/01/19 09:50:57;;;;;;;7.40;3.83;;;;;;;-145.69;100.00;73464.44;5022812;28;20200;-77
2022/01/19 09:53:24;;;;;;;5.17;2.70;;;;;;;-145.69;100.00;73416.66;5013649;28;20201;-77
2022/01/19 09:55:53;;;;;;;7.40;3.10;;;;;;;-145.69;100.00;73382.81;5013581;28;20205;-77
2022/01/19 09:58:21;;;;;;;7.93;3.57;;;;;;;-145.69;99.09;73352.94;5013425;28;20204;-79
2022/01/19 10:00:48;;;;;;;7.37;2.93;;;;;;;-145.69;91.85;73277.28;5013225;28;20224;-78
2022/01/19 10:03:18;;;;;;;7.20;3.37;;;;;;;-145.69;99.01;73289.22;5013623;28;20722;-79
2022/01/19 10:06:02;;;;;;;6.90;3.17;;;;;;;-145.69;99.27;73287.25;5013676;28;20205;-77
2022/01/19 10:08:34;;;;;;;7.63;3.33;;;;;;;-145.69;99.71;73277.28;5013206;28;20205;-78
2022/01/19 10:11:18;;;;;;;6.33;3.00;;;;;;;-145.69;92.46;73253.41;5013126;28;20208;-78
2022/01/19 10:19:32;;;;;;;6.47;2.87;;;;;;;-145.69;81.29;73141.91;5034498;28;20242;-78
2022/01/19 10:22:06;;;;;;;6.90;3.70;;;;;;;-145.69;89.48;73143.91;5003508;28;20241;-77
2022/01/19 10:24:34;;;;;;;4.50;2.60;;;;;;;-145.69;83.59;73149.88;4993449;28;20679;-77
2022/01/19 10:27:27;;;;;;;7.67;3.20;;;;;;;-145.69;87.75;73145.91;4993363;28;20247;-76
2022/01/19 10:29:55;;;;;;;7.30;3.20;;;;;;;-145.69;80.78;73118.03;4999897;28;20205;-77
2022/01/19 10:32:23;;;;;;;5.33;2.50;;;;;;;-145.69;81.47;73100.09;4993350;28;20205;-76
2022/01/19 10:34:50;;;;;;;6.00;2.87;;;;;;;-145.69;79.59;73056.31;4992827;28;20652;-76
2022/01/19 10:37:23;;;;;;;8.10;3.00;;;;;;;-145.69;84.15;73056.31;4993223;28;20213;-79
2022/01/19 10:39:51;;;;;;;6.67;2.80;;;;;;;-145.69;84.15;73058.31;5001635;28;20205;-77
2022/01/19 10:42:20;;;;;;;6.50;2.80;;;;;;;-145.69;76.73;73030.44;5012444;28;20284;-76
2022/01/19 10:44:51;;;;;;;4.50;2.47;;;;;;;-145.69;79.32;73010.53;5012478;28;20659;-76
2022/01/19 10:47:18;;;;;;;5.37;2.77;;;;;;;-145.69;74.88;72966.72;5012805;28;20201;-76
2022/01/19 10:49:50;;;;;;;6.53;2.90;;;;;;;-145.69;78.64;72984.66;5012539;28;20266;-76
2022/01/19 10:52:27;;;;;;;6.20;3.27;;;;;;;-145.69;76.04;72966.72;5010953;28;20811;-76
2022/01/19 10:54:53;;;;;;;8.43;2.90;;;;;;;-145.69;77.85;72970.72;5012240;28;20211;-76
2022/01/19 10:57:20;;;;;;;8.00;2.70;;;;;;;-145.69;76.19;72956.78;5012531;28;20208;-76
2022/01/19 10:59:50;;;;;;;6.47;3.40;;;;;;;-145.69;75.05;72952.78;5012366;28;20273;-77
2022/01/19 11:02:17;;;;;;;7.00;3.70;;;;;;;-145.69;72.79;72913.00;5012365;28;20236;-77
2022/01/19 11:04:45;;;;;;;6.03;3.30;;;;;;;-145.69;78.23;72934.88;4998394;28;20208;-76
2022/01/19 11:07:13;;;;;;;8.40;3.40;;;;;;;-145.69;75.21;72926.91;4992548;28;20205;-76
2022/01/19 11:09:45;;;;;;;7.40;3.57;;;;;;;-145.69;75.52;72922.94;4992505;28;20263;-76
2022/01/19 11:12:15;;;;;;;8.90;3.77;;;;;;;-145.69;75.40;72905.03;4992742;28;20296;-77
2022/01/19 11:14:43;;;;;;;6.97;3.50;;;;;;;-145.69;74.19;72887.09;4992554;28;20204;-76
2022/01/19 11:17:12;;;;;;;7.97;3.90;;;;;;;-145.69;72.74;72871.19;4992528;28;20241;-77
2022/01/19 11:19:39;;;;;;;7.87;3.77;;;;;;;-145.69;71.78;72857.25;4992430;28;20206;-77
2022/01/19 11:22:16;;;;;;;6.37;3.30;;;;;;;-145.69;71.08;72855.25;4992160;28;20256;-77
2022/01/19 11:24:54;;;;;;;8.13;3.93;;;;;;;-145.69;69.04;72851.28;4992472;28;20205;-77
2022/01/19 11:27:22;;;;;;;7.97;3.67;;;;;;;-145.69;71.32;72843.31;4992464;28;20208;-77
2022/01/19 11:30:14;;;;;;;6.30;3.00;;;;;;;-145.69;69.31;72841.31;4992377;28;20206;-77
2022/01/19 11:32:43;;;;;;;8.37;3.70;;;;;;;-145.69;68.80;72821.41;4992232;28;20668;-77
2022/01/19 11:35:11;;;;;;;6.80;3.23;;;;;;;-145.69;67.78;72817.44;5009894;28;20201;-77
2022/01/19 11:37:43;;;;;;;8.27;3.90;;;;;;;-145.69;67.20;72811.47;5011779;28;20231;-76
2022/01/19 11:40:12;;;;;;;6.53;3.53;;;;;;;-145.69;66.03;72807.47;5011553;28;20201;-76
2022/01/19 11:42:40;;;;;;;7.13;3.90;;;;;;;-145.69;65.96;72799.53;5011500;28;20667;-76
2022/01/19 11:45:08;;;;;;;13.63;3.70;;;;;;;-145.69;66.25;72801.50;5011536;28;20307;-75
2022/01/19 11:47:35;;;;;;;9.90;3.80;;;;;;;-145.69;67.56;72807.47;5011339;28;20659;-75
2022/01/19 11:50:06;;;;;;;9.73;3.77;;;;;;;-145.69;66.76;72797.53;5011617;28;20254;-76
2022/01/19 11:53:03;;;;;;;7.87;3.23;;;;;;;-145.69;66.51;72791.56;5011523;28;20205;-76
2022/01/19 11:55:33;;;;;;;6.53;3.53;;;;;;;-145.69;68.42;72783.59;5009867;28;20209;-76
2022/01/19 11:58:13;;;;;;;9.50;4.37;;;;;;;-145.69;67.50;72783.59;5011689;28;20266;-76
2022/01/19 12:00:41;;;;;;;8.60;4.00;;;;;;;-145.69;68.15;72791.56;5011206;28;20228;-76
2022/01/19 12:03:19;;;;;;;9.37;4.37;;;;;;;-145.69;69.71;72781.59;5005772;28;20301;-76
2022/01/19 12:05:47;;;;;;;8.93;4.53;;;;;;;-145.69;69.11;72791.56;4991586;28;20209;-75
2022/01/19 12:08:29;;;;;;;9.03;4.13;;;;;;;-145.69;69.16;72777.63;4991698;28;20208;-76
2022/01/19 12:10:58;;;;;;;7.83;4.43;;;;;;;-145.69;69.45;72763.69;4991688;28;20615;-76
2022/01/19 12:13:42;;;;;;;8.23;4.30;;;;;;;-145.69;70.18;72755.72;4991522;28;20202;-75
2022/01/19 12:16:14;;;;;;;9.80;4.57;;;;;;;-145.69;69.90;72765.69;4991476;28;20251;-76
2022/01/19 12:18:47;;;;;;;9.07;4.47;;;;;;;-145.69;70.08;72759.72;5003238;28;20229;-77
2022/01/19 12:21:17;;;;;;;9.30;4.13;;;;;;;-145.69;70.43;72773.66;5011073;28;20640;-76
2022/01/19 12:23:44;;;;;;;9.90;4.73;;;;;;;-145.69;71.26;72787.56;5011110;28;20219;-76